createdAt,value
2022-12-03T00:00:12.778Z,1028.41
2022-12-03T00:00:43.609Z,1028.41
2022-12-03T00:01:15.660Z,1028.61
2022-12-03T00:01:47.663Z,1028.61
2022-12-03T00:02:19.760Z,1028.41
2022-12-03T00:02:48.724Z,1028.61
2022-12-03T00:03:23.848Z,1028.61
2022-12-03T00:03:46.622Z,1028.51
2022-12-03T00:04:09.376Z,1028.51
2022-12-03T00:04:43.520Z,1028.51
2022-12-03T00:05:15.659Z,1028.41
2022-12-03T00:05:49.209Z,1028.41
2022-12-03T00:06:16.908Z,1028.51
2022-12-03T00:06:49.090Z,1028.61
2022-12-03T00:07:25.074Z,1028.61
2022-12-03T00:07:47.161Z,1028.61
2022-12-03T00:08:09.269Z,1028.61
2022-12-03T00:08:43.490Z,1028.61
2022-12-03T00:09:15.582Z,1028.51
2022-12-03T00:09:47.902Z,1028.51
2022-12-03T00:10:19.568Z,1028.51
2022-12-03T00:10:42.548Z,1028.51
2022-12-03T00:11:04.915Z,1028.51
2022-12-03T00:11:39.755Z,1028.51
2022-12-03T00:12:11.566Z,1028.51
2022-12-03T00:12:43.641Z,1028.51
2022-12-03T00:13:15.754Z,1028.72
2022-12-03T00:13:47.707Z,1028.72
2022-12-03T00:14:19.562Z,1028.51
2022-12-03T00:14:53.014Z,1028.41
2022-12-03T00:15:04.881Z,1028.41
2022-12-03T00:15:39.628Z,1028.41
2022-12-03T00:16:12.048Z,1028.51
2022-12-03T00:16:43.912Z,1028.51
2022-12-03T00:17:15.531Z,1028.41
2022-12-03T00:17:47.558Z,1028.41
2022-12-03T00:18:17.117Z,1028.41
2022-12-03T00:18:48.830Z,1028.41
2022-12-03T00:19:23.590Z,1028.41
2022-12-03T00:19:46.308Z,1028.72
2022-12-03T00:20:08.562Z,1028.72
2022-12-03T00:20:43.717Z,1028.72
2022-12-03T00:21:15.651Z,1028.61
2022-12-03T00:21:47.537Z,1028.61
2022-12-03T00:22:17.107Z,1028.31
2022-12-03T00:22:48.896Z,1028.31
2022-12-03T00:23:24.014Z,1028.31
2022-12-03T00:23:46.571Z,1028.61
2022-12-03T00:24:09.084Z,1028.61
2022-12-03T00:24:43.533Z,1028.61
2022-12-03T00:25:15.752Z,1028.51
2022-12-03T00:25:47.521Z,1028.51
2022-12-03T00:26:19.739Z,1028.51
2022-12-03T00:26:42.316Z,1028.41
2022-12-03T00:27:04.846Z,1028.41
2022-12-03T00:27:39.693Z,1028.41
2022-12-03T00:28:11.507Z,1028.61
2022-12-03T00:28:43.577Z,1028.61
2022-12-03T00:29:15.587Z,1028.51
2022-12-03T00:29:47.895Z,1028.51
2022-12-03T00:30:19.623Z,1028.24
2022-12-03T00:30:48.542Z,1028.41
2022-12-03T00:31:23.826Z,1028.41
2022-12-03T00:31:47.103Z,1028.31
2022-12-03T00:32:09.828Z,1028.31
2022-12-03T00:32:43.464Z,1028.31
2022-12-03T00:33:15.554Z,1028.51
2022-12-03T00:33:47.762Z,1028.51
2022-12-03T00:34:19.594Z,1028.51
2022-12-03T00:34:42.344Z,1028.41
2022-12-03T00:35:04.603Z,1028.41
2022-12-03T00:35:39.559Z,1028.41
2022-12-03T00:36:11.810Z,1028.41
2022-12-03T00:36:43.548Z,1028.41
2022-12-03T00:37:15.906Z,1028.61
2022-12-03T00:37:47.542Z,1028.61
2022-12-03T00:38:19.618Z,1028.51
2022-12-03T00:38:44.026Z,1028.72
2022-12-03T00:39:04.922Z,1028.72
2022-12-03T00:39:41.228Z,1028.72
2022-12-03T00:40:11.607Z,1028.31
2022-12-03T00:40:44.149Z,1028.31
2022-12-03T00:41:15.618Z,1028.72
2022-12-03T00:41:47.695Z,1028.72
2022-12-03T00:42:23.149Z,1028.61
2022-12-03T00:42:42.399Z,1028.31
2022-12-03T00:43:04.705Z,1028.31
2022-12-03T00:43:39.930Z,1028.31
2022-12-03T00:44:11.644Z,1028.41
2022-12-03T00:44:43.900Z,1028.41
2022-12-03T00:45:32.762Z,1028.51
2022-12-03T00:45:54.818Z,1028.51
2022-12-03T00:46:21.366Z,1028.51
2022-12-03T00:46:49.454Z,1028.51
2022-12-03T00:47:23.675Z,1028.51
2022-12-03T00:47:46.303Z,1028.41
2022-12-03T00:48:08.611Z,1028.41
2022-12-03T00:48:43.670Z,1028.41
2022-12-03T00:49:16.328Z,1028.51
2022-12-03T00:49:47.980Z,1028.51
2022-12-03T00:50:17.261Z,1028.51
2022-12-03T00:50:48.550Z,1028.61
2022-12-03T00:51:23.808Z,1028.61
2022-12-03T00:51:46.467Z,1028.41
2022-12-03T00:52:08.858Z,1028.41
2022-12-03T00:52:45.980Z,1028.51
2022-12-03T00:53:15.621Z,1028.51
2022-12-03T00:53:48.157Z,1028.51
2022-12-03T00:54:19.953Z,1028.31
2022-12-03T00:54:42.611Z,1028.24
2022-12-03T00:55:05.202Z,1028.24
2022-12-03T00:55:39.787Z,1028.24
2022-12-03T00:56:15.291Z,1028.41
2022-12-03T00:56:43.524Z,1028.41
2022-12-03T00:57:18.050Z,1028.41
2022-12-03T00:57:48.096Z,1028.41
2022-12-03T00:58:26.616Z,1028.31
2022-12-03T00:58:44.408Z,1028.31
2022-12-03T00:59:06.454Z,1028.31
2022-12-03T00:59:40.715Z,1028.31
2022-12-03T01:00:11.929Z,1028.51
2022-12-03T01:00:43.653Z,1028.51
2022-12-03T01:01:15.583Z,1028.31
2022-12-03T01:01:49.445Z,1028.31
2022-12-03T01:02:19.837Z,1028.51
2022-12-03T01:02:42.342Z,1028.31
2022-12-03T01:03:05.859Z,1028.31
2022-12-03T01:03:39.820Z,1028.31
2022-12-03T01:04:11.669Z,1028.41
2022-12-03T01:04:43.894Z,1028.41
2022-12-03T01:05:16.233Z,1028.51
2022-12-03T01:05:48.364Z,1028.51
2022-12-03T01:06:19.797Z,1028.51
2022-12-03T01:06:42.531Z,1028.41
2022-12-03T01:07:05.191Z,1028.41
2022-12-03T01:07:40.844Z,1028.41
2022-12-03T01:08:12.401Z,1028.31
2022-12-03T01:08:43.666Z,1028.31
2022-12-03T01:09:15.579Z,1028.31
2022-12-03T01:09:47.898Z,1028.31
2022-12-03T01:10:20.129Z,1028.41
2022-12-03T01:10:42.753Z,1028.41
2022-12-03T01:11:05.414Z,1028.41
2022-12-03T01:11:39.752Z,1028.41
2022-12-03T01:12:11.826Z,1028.41
2022-12-03T01:12:43.460Z,1028.41
2022-12-03T01:13:15.601Z,1028.31
2022-12-03T01:13:47.883Z,1028.31
2022-12-03T01:14:20.662Z,1028.41
2022-12-03T01:14:43.432Z,1028.41
2022-12-03T01:15:06.378Z,1028.41
2022-12-03T01:15:40.459Z,1028.41
2022-12-03T01:16:12.215Z,1028.31
2022-12-03T01:16:44.194Z,1028.31
2022-12-03T01:17:15.807Z,1028.51
2022-12-03T01:17:47.717Z,1028.51
2022-12-03T01:18:20.305Z,1028.31
2022-12-03T01:18:43.291Z,1028.31
2022-12-03T01:19:05.576Z,1028.31
2022-12-03T01:19:44.883Z,1028.31
2022-12-03T01:20:12.150Z,1028.31
2022-12-03T01:20:43.717Z,1028.31
2022-12-03T01:21:15.791Z,1028.41
2022-12-03T01:21:47.979Z,1028.41
2022-12-03T01:22:19.732Z,1028.51
2022-12-03T01:22:42.443Z,1028.61
2022-12-03T01:23:04.833Z,1028.61
2022-12-03T01:23:40.653Z,1028.61
2022-12-03T01:24:11.922Z,1028.31
2022-12-03T01:24:43.751Z,1028.31
2022-12-03T01:25:16.133Z,1028.31
2022-12-03T01:25:48.089Z,1028.31
2022-12-03T01:26:17.315Z,1028.51
2022-12-03T01:26:48.658Z,1028.24
2022-12-03T01:27:23.639Z,1028.24
2022-12-03T01:27:46.283Z,1028.51
2022-12-03T01:28:08.847Z,1028.51
2022-12-03T01:28:43.672Z,1028.51
2022-12-03T01:29:15.900Z,1028.51
2022-12-03T01:29:47.604Z,1028.51
2022-12-03T01:30:17.273Z,1028.41
2022-12-03T01:30:48.774Z,1028.61
2022-12-03T01:31:24.549Z,1028.61
2022-12-03T01:31:47.042Z,1028.41
2022-12-03T01:32:10.164Z,1028.41
2022-12-03T01:32:43.627Z,1028.41
2022-12-03T01:33:15.615Z,1028.51
2022-12-03T01:33:48.429Z,1028.51
2022-12-03T01:34:20.532Z,1028.31
2022-12-03T01:34:43.348Z,1028.51
2022-12-03T01:35:05.696Z,1028.51
2022-12-03T01:35:39.599Z,1028.51
2022-12-03T01:36:12.011Z,1028.31
2022-12-03T01:36:43.626Z,1028.31
2022-12-03T01:37:15.746Z,1028.31
2022-12-03T01:37:47.613Z,1028.31
2022-12-03T01:38:16.963Z,1028.51
2022-12-03T01:38:48.692Z,1028.41
2022-12-03T01:39:23.891Z,1028.41
2022-12-03T01:39:46.350Z,1028.41
2022-12-03T01:40:09.317Z,1028.41
2022-12-03T01:40:44.009Z,1028.41
2022-12-03T01:41:15.634Z,1028.61
2022-12-03T01:41:47.572Z,1028.61
2022-12-03T01:42:18.297Z,1028.41
2022-12-03T01:42:49.095Z,1028.61
2022-12-03T01:43:23.852Z,1028.61
2022-12-03T01:43:46.255Z,1028.41
2022-12-03T01:44:09.735Z,1028.41
2022-12-03T01:44:43.702Z,1028.41
2022-12-03T01:45:15.712Z,1028.51
2022-12-03T01:45:47.661Z,1028.51
2022-12-03T01:46:17.135Z,1028.41
2022-12-03T01:46:49.228Z,1028.51
2022-12-03T01:47:23.988Z,1028.51
2022-12-03T01:47:46.512Z,1028.51
2022-12-03T01:48:09.092Z,1028.51
2022-12-03T01:48:44.215Z,1028.51
2022-12-03T01:49:16.328Z,1028.41
2022-12-03T01:49:47.845Z,1028.41
2022-12-03T01:50:16.941Z,1028.31
2022-12-03T01:50:48.603Z,1028.61
2022-12-03T01:51:23.692Z,1028.61
2022-12-03T01:51:46.312Z,1028.61
2022-12-03T01:52:08.818Z,1028.61
2022-12-03T01:52:43.700Z,1028.61
2022-12-03T01:53:16.494Z,1028.72
2022-12-03T01:53:47.518Z,1028.72
2022-12-03T01:54:16.972Z,1028.51
2022-12-03T01:54:48.585Z,1028.51
2022-12-03T01:55:25.103Z,1028.51
2022-12-03T01:55:48.982Z,1028.51
2022-12-03T01:56:10.300Z,1028.51
2022-12-03T01:56:44.427Z,1028.51
2022-12-03T01:57:16.482Z,1028.61
2022-12-03T01:57:47.752Z,1028.61
2022-12-03T01:58:17.240Z,1028.61
2022-12-03T01:58:48.689Z,1028.41
2022-12-03T01:59:24.423Z,1028.41
2022-12-03T01:59:46.710Z,1028.61
2022-12-03T02:00:10.412Z,1028.61
2022-12-03T02:00:43.750Z,1028.61
2022-12-03T02:01:16.180Z,1028.61
2022-12-03T02:01:48.188Z,1028.61
2022-12-03T02:02:19.936Z,1028.72
2022-12-03T02:02:42.924Z,1028.61
2022-12-03T02:03:05.206Z,1028.61
2022-12-03T02:03:40.479Z,1028.61
2022-12-03T02:04:11.503Z,1028.61
2022-12-03T02:04:43.766Z,1028.61
2022-12-03T02:05:15.571Z,1028.61
2022-12-03T02:05:48.222Z,1028.61
2022-12-03T02:06:19.522Z,1028.72
2022-12-03T02:06:49.761Z,1028.51
2022-12-03T02:07:23.795Z,1028.51
2022-12-03T02:07:46.494Z,1028.31
2022-12-03T02:08:08.725Z,1028.31
2022-12-03T02:08:43.482Z,1028.31
2022-12-03T02:09:15.741Z,1028.61
2022-12-03T02:09:48.530Z,1028.61
2022-12-03T02:10:18.230Z,1028.61
2022-12-03T02:10:49.117Z,1028.72
2022-12-03T02:11:24.448Z,1028.72
2022-12-03T02:11:47.357Z,1028.41
2022-12-03T02:12:09.926Z,1028.41
2022-12-03T02:12:43.591Z,1028.41
2022-12-03T02:13:15.999Z,1028.61
2022-12-03T02:13:48.009Z,1028.61
2022-12-03T02:14:17.102Z,1028.41
2022-12-03T02:14:48.774Z,1028.72
2022-12-03T02:15:23.651Z,1028.72
2022-12-03T02:15:46.881Z,1028.51
2022-12-03T02:16:09.088Z,1028.51
2022-12-03T02:16:45.342Z,1028.51
2022-12-03T02:17:16.507Z,1028.51
2022-12-03T02:17:48.457Z,1028.51
2022-12-03T02:18:19.713Z,1028.31
2022-12-03T02:18:42.401Z,1028.51
2022-12-03T02:19:05.199Z,1028.51
2022-12-03T02:19:40.599Z,1028.51
2022-12-03T02:20:11.656Z,1028.31
2022-12-03T02:20:44.206Z,1028.31
2022-12-03T02:21:15.822Z,1028.61
2022-12-03T02:21:48.911Z,1028.61
2022-12-03T02:22:19.491Z,1028.51
2022-12-03T02:22:51.880Z,1028.41
2022-12-03T02:23:23.586Z,1028.41
2022-12-03T02:23:46.376Z,1028.51
2022-12-03T02:24:09.404Z,1028.51
2022-12-03T02:24:44.197Z,1028.51
2022-12-03T02:25:16.203Z,1028.61
2022-12-03T02:25:47.553Z,1028.61
2022-12-03T02:26:17.341Z,1028.41
2022-12-03T02:26:48.991Z,1028.41
2022-12-03T02:27:23.725Z,1028.41
2022-12-03T02:27:46.408Z,1028.31
2022-12-03T02:28:08.930Z,1028.31
2022-12-03T02:28:44.262Z,1028.31
2022-12-03T02:29:15.782Z,1028.41
2022-12-03T02:29:47.690Z,1028.41
2022-12-03T02:30:17.350Z,1028.41
2022-12-03T02:30:49.611Z,1028.61
2022-12-03T02:31:23.902Z,1028.61
2022-12-03T02:31:46.559Z,1028.31
2022-12-03T02:32:09.644Z,1028.31
2022-12-03T02:32:43.664Z,1028.31
2022-12-03T02:33:15.850Z,1028.31
2022-12-03T02:33:47.785Z,1028.31
2022-12-03T02:34:17.733Z,1028.61
2022-12-03T02:34:48.902Z,1028.41
2022-12-03T02:35:24.517Z,1028.41
2022-12-03T02:35:47.124Z,1028.31
2022-12-03T02:36:10.023Z,1028.31
2022-12-03T02:36:44.053Z,1028.31
2022-12-03T02:37:15.608Z,1028.61
2022-12-03T02:37:47.611Z,1028.61
2022-12-03T02:38:16.907Z,1028.31
2022-12-03T02:38:49.595Z,1028.51
2022-12-03T02:39:24.860Z,1028.51
2022-12-03T02:39:47.403Z,1028.41
2022-12-03T02:40:09.785Z,1028.41
2022-12-03T02:40:43.969Z,1028.41
2022-12-03T02:41:15.765Z,1028.41
2022-12-03T02:41:47.752Z,1028.41
2022-12-03T02:42:19.198Z,1028.41
2022-12-03T02:42:49.215Z,1028.24
2022-12-03T02:43:24.187Z,1028.24
2022-12-03T02:43:46.667Z,1028.41
2022-12-03T02:44:08.928Z,1028.41
2022-12-03T02:44:44.297Z,1028.41
2022-12-03T02:45:15.723Z,1028.51
2022-12-03T02:45:47.667Z,1028.51
2022-12-03T02:46:17.249Z,1028.51
2022-12-03T02:46:48.701Z,1028.61
2022-12-03T02:47:23.836Z,1028.61
2022-12-03T02:47:46.260Z,1028.31
2022-12-03T02:48:08.983Z,1028.31
2022-12-03T02:48:46.133Z,1028.31
2022-12-03T02:49:17.588Z,1028.41
2022-12-03T02:49:48.055Z,1028.41
2022-12-03T02:50:20.297Z,1028.41
2022-12-03T02:50:43.144Z,1028.51
2022-12-03T02:51:05.550Z,1028.51
2022-12-03T02:51:39.741Z,1028.51
2022-12-03T02:52:11.704Z,1028.51
2022-12-03T02:52:44.049Z,1028.51
2022-12-03T02:53:15.624Z,1028.31
2022-12-03T02:53:49.009Z,1028.31
2022-12-03T02:54:19.626Z,1028.31
2022-12-03T02:54:53.264Z,1028.31
2022-12-03T02:55:24.273Z,1028.31
2022-12-03T02:55:47.107Z,1028.41
2022-12-03T02:56:10.877Z,1028.41
2022-12-03T02:56:43.923Z,1028.41
2022-12-03T02:57:15.669Z,1028.31
2022-12-03T02:57:48.525Z,1028.31
2022-12-03T02:58:19.646Z,1028.61
2022-12-03T02:58:50.226Z,1028.41
2022-12-03T02:59:24.510Z,1028.41
2022-12-03T02:59:47.103Z,1028.31
2022-12-03T03:00:15.752Z,1028.31
2022-12-03T03:00:44.697Z,1028.31
2022-12-03T03:01:17.180Z,1028.31
2022-12-03T03:01:48.174Z,1028.31
2022-12-03T03:02:19.759Z,1028.41
2022-12-03T03:02:43.015Z,1028.51
2022-12-03T03:03:04.899Z,1028.51
2022-12-03T03:03:40.286Z,1028.51
2022-12-03T03:04:12.446Z,1028.24
2022-12-03T03:04:43.618Z,1028.24
2022-12-03T03:05:18.810Z,1028.61
2022-12-03T03:05:47.673Z,1028.61
2022-12-03T03:06:17.228Z,1028.31
2022-12-03T03:06:49.182Z,1028.51
2022-12-03T03:07:24.765Z,1028.51
2022-12-03T03:07:47.281Z,1028.41
2022-12-03T03:08:10.281Z,1028.41
2022-12-03T03:08:43.668Z,1028.41
2022-12-03T03:09:15.709Z,1028.41
2022-12-03T03:09:49.296Z,1028.41
2022-12-03T03:10:19.800Z,1028.31
2022-12-03T03:10:42.391Z,1028.51
2022-12-03T03:11:05.498Z,1028.51
2022-12-03T03:11:39.714Z,1028.51
2022-12-03T03:12:11.602Z,1028.31
2022-12-03T03:12:43.506Z,1028.31
2022-12-03T03:13:24.110Z,1028.41
2022-12-03T03:13:50.212Z,1028.41
2022-12-03T03:14:19.945Z,1028.41
2022-12-03T03:14:42.393Z,1028.24
2022-12-03T03:15:05.341Z,1028.24
2022-12-03T03:15:44.940Z,1028.31
2022-12-03T03:16:05.971Z,1028.31
2022-12-03T03:16:46.551Z,1028.31
2022-12-03T03:17:17.578Z,1028.51
2022-12-03T03:17:47.555Z,1028.51
2022-12-03T03:18:19.909Z,1028.41
2022-12-03T03:18:42.664Z,1028.24
2022-12-03T03:19:04.850Z,1028.24
2022-12-03T03:19:39.869Z,1028.24
2022-12-03T03:20:11.592Z,1028.24
2022-12-03T03:20:43.509Z,1028.24
2022-12-03T03:21:15.617Z,1028.41
2022-12-03T03:21:49.055Z,1028.41
2022-12-03T03:22:16.989Z,1028.24
2022-12-03T03:22:48.548Z,1028.41
2022-12-03T03:23:23.712Z,1028.41
2022-12-03T03:23:47.031Z,1028.41
2022-12-03T03:24:09.350Z,1028.41
2022-12-03T03:24:44.147Z,1028.41
2022-12-03T03:25:15.604Z,1028.41
2022-12-03T03:25:47.559Z,1028.41
2022-12-03T03:26:19.707Z,1028.31
2022-12-03T03:26:42.636Z,1028.24
2022-12-03T03:27:05.030Z,1028.24
2022-12-03T03:27:39.558Z,1028.24
2022-12-03T03:28:11.597Z,1028.24
2022-12-03T03:28:43.594Z,1028.24
2022-12-03T03:29:15.511Z,1028.24
2022-12-03T03:29:47.521Z,1028.24
2022-12-03T03:30:19.749Z,1028.24
2022-12-03T03:30:42.757Z,1028.41
2022-12-03T03:31:05.165Z,1028.41
2022-12-03T03:31:39.905Z,1028.41
2022-12-03T03:32:11.620Z,1028.14
2022-12-03T03:32:43.482Z,1028.14
2022-12-03T03:33:15.771Z,1028.24
2022-12-03T03:33:47.726Z,1028.24
2022-12-03T03:34:19.640Z,1028.31
2022-12-03T03:34:48.645Z,1028.31
2022-12-03T03:35:23.692Z,1028.31
2022-12-03T03:35:47.186Z,1028.24
2022-12-03T03:36:09.348Z,1028.24
2022-12-03T03:36:43.557Z,1028.24
2022-12-03T03:37:15.751Z,1028.24
2022-12-03T03:37:47.669Z,1028.24
2022-12-03T03:38:19.571Z,1028.31
2022-12-03T03:38:42.568Z,1028.31
2022-12-03T03:39:04.907Z,1028.31
2022-12-03T03:39:40.238Z,1028.31
2022-12-03T03:40:11.469Z,1028.14
2022-12-03T03:40:44.010Z,1028.14
2022-12-03T03:41:15.522Z,1028.24
2022-12-03T03:41:48.022Z,1028.24
2022-12-03T03:42:19.533Z,1028.24
2022-12-03T03:42:51.636Z,1028.24
2022-12-03T03:43:24.008Z,1028.24
2022-12-03T03:43:47.010Z,1028.24
2022-12-03T03:44:08.932Z,1028.24
2022-12-03T03:44:43.645Z,1028.24
2022-12-03T03:45:15.628Z,1028.24
2022-12-03T03:45:47.769Z,1028.24
2022-12-03T03:46:17.198Z,1028.31
2022-12-03T03:46:48.563Z,1028.14
2022-12-03T03:47:24.155Z,1028.14
2022-12-03T03:47:48.623Z,1028.24
2022-12-03T03:48:10.953Z,1028.24
2022-12-03T03:48:43.776Z,1028.24
2022-12-03T03:49:15.753Z,1028.14
2022-12-03T03:49:47.690Z,1028.14
2022-12-03T03:50:19.681Z,1028.41
2022-12-03T03:50:42.322Z,1028.31
2022-12-03T03:51:04.662Z,1028.31
2022-12-03T03:51:41.058Z,1028.31
2022-12-03T03:52:11.750Z,1028.24
2022-12-03T03:52:43.507Z,1028.24
2022-12-03T03:53:15.486Z,1028.14
2022-12-03T03:53:47.682Z,1028.14
2022-12-03T03:54:16.950Z,1028.24
2022-12-03T03:54:48.608Z,1028.14
2022-12-03T03:55:23.664Z,1028.14
2022-12-03T03:55:47.654Z,1028.14
2022-12-03T03:56:09.803Z,1028.14
2022-12-03T03:56:44.049Z,1028.14
2022-12-03T03:57:15.601Z,1028.14
2022-12-03T03:57:47.673Z,1028.14
2022-12-03T03:58:19.670Z,1028.24
2022-12-03T03:58:48.722Z,1028.04
2022-12-03T03:59:23.708Z,1028.04
2022-12-03T03:59:46.867Z,1028.04
2022-12-03T04:00:10.036Z,1028.04
2022-12-03T04:00:43.727Z,1028.04
2022-12-03T04:01:15.653Z,1028.24
2022-12-03T04:01:47.774Z,1028.24
2022-12-03T04:02:16.998Z,1028.14
2022-12-03T04:02:48.673Z,1028.14
2022-12-03T04:03:23.579Z,1028.14
2022-12-03T04:03:46.247Z,1028.24
2022-12-03T04:04:08.658Z,1028.24
2022-12-03T04:04:44.138Z,1028.24
2022-12-03T04:05:15.831Z,1028.31
2022-12-03T04:05:47.537Z,1028.31
2022-12-03T04:06:19.650Z,1028.14
2022-12-03T04:06:42.309Z,1028.14
2022-12-03T04:07:04.613Z,1028.14
2022-12-03T04:07:40.166Z,1028.14
2022-12-03T04:08:11.676Z,1028.24
2022-12-03T04:08:43.651Z,1028.24
2022-12-03T04:09:18.106Z,1028.24
2022-12-03T04:09:47.808Z,1028.24
2022-12-03T04:10:16.887Z,1028.24
2022-12-03T04:10:48.655Z,1028.04
2022-12-03T04:11:23.732Z,1028.04
2022-12-03T04:11:46.557Z,1028.14
2022-12-03T04:12:08.881Z,1028.14
2022-12-03T04:12:43.679Z,1028.14
2022-12-03T04:13:15.485Z,1028.04
2022-12-03T04:13:50.066Z,1028.04
2022-12-03T04:14:13.304Z,1028.14
2022-12-03T04:14:49.308Z,1028.14
2022-12-03T04:15:23.762Z,1028.14
2022-12-03T04:15:46.761Z,1028.14
2022-12-03T04:16:08.987Z,1028.14
2022-12-03T04:16:44.175Z,1028.14
2022-12-03T04:17:15.981Z,1028.04
2022-12-03T04:17:47.721Z,1028.04
2022-12-03T04:18:18.488Z,1028.31
2022-12-03T04:18:49.081Z,1028.24
2022-12-03T04:19:25.466Z,1028.24
2022-12-03T04:19:46.769Z,1028.24
2022-12-03T04:20:10.801Z,1028.24
2022-12-03T04:20:43.587Z,1028.24
2022-12-03T04:21:15.582Z,1028.04
2022-12-03T04:21:48.177Z,1028.04
2022-12-03T04:22:17.794Z,1028.24
2022-12-03T04:22:48.836Z,1028.04
2022-12-03T04:23:30.710Z,1028.04
2022-12-03T04:23:46.553Z,1028.14
2022-12-03T04:24:09.076Z,1028.14
2022-12-03T04:24:43.825Z,1028.14
2022-12-03T04:25:15.945Z,1028.04
2022-12-03T04:25:47.975Z,1028.04
2022-12-03T04:26:23.333Z,1028.24
2022-12-03T04:26:42.546Z,1028.24
2022-12-03T04:27:05.955Z,1028.24
2022-12-03T04:27:39.538Z,1028.24
2022-12-03T04:28:11.639Z,1028.14
2022-12-03T04:28:43.644Z,1028.14
2022-12-03T04:29:15.873Z,1028.14
2022-12-03T04:29:47.741Z,1028.14
2022-12-03T04:30:17.444Z,1028.24
2022-12-03T04:30:49.000Z,1028.04
2022-12-03T04:31:24.398Z,1028.04
2022-12-03T04:31:47.062Z,1027.94
2022-12-03T04:32:10.354Z,1027.94
2022-12-03T04:32:44.326Z,1027.94
2022-12-03T04:33:15.864Z,1028.14
2022-12-03T04:33:48.352Z,1028.14
2022-12-03T04:34:20.031Z,1027.94
2022-12-03T04:34:42.892Z,1028.04
2022-12-03T04:35:05.504Z,1028.04
2022-12-03T04:35:40.312Z,1028.04
2022-12-03T04:36:11.903Z,1028.04
2022-12-03T04:36:43.530Z,1028.04
2022-12-03T04:37:15.721Z,1028.14
2022-12-03T04:37:47.649Z,1028.14
2022-12-03T04:38:17.023Z,1028.14
2022-12-03T04:38:48.615Z,1028.14
2022-12-03T04:39:24.379Z,1028.14
2022-12-03T04:39:46.978Z,1028.04
2022-12-03T04:40:09.825Z,1028.04
2022-12-03T04:40:43.576Z,1028.04
2022-12-03T04:41:15.744Z,1028.04
2022-12-03T04:41:47.722Z,1028.04
2022-12-03T04:42:18.269Z,1028.04
2022-12-03T04:42:49.089Z,1028.04
2022-12-03T04:43:23.714Z,1028.04
2022-12-03T04:43:46.465Z,1028.14
2022-12-03T04:44:09.348Z,1028.14
2022-12-03T04:44:43.603Z,1028.14
2022-12-03T04:45:15.681Z,1028.04
2022-12-03T04:45:47.693Z,1028.04
2022-12-03T04:46:17.293Z,1028.04
2022-12-03T04:46:48.655Z,1028.04
2022-12-03T04:47:23.706Z,1028.04
2022-12-03T04:47:46.290Z,1027.84
2022-12-03T04:48:08.726Z,1027.84
2022-12-03T04:48:45.625Z,1028.04
2022-12-03T04:49:17.351Z,1028.04
2022-12-03T04:49:47.871Z,1028.04
2022-12-03T04:50:18.880Z,1027.94
2022-12-03T04:50:48.812Z,1028.24
2022-12-03T04:51:23.756Z,1028.24
2022-12-03T04:51:46.352Z,1028.14
2022-12-03T04:52:08.856Z,1028.14
2022-12-03T04:52:43.630Z,1028.14
2022-12-03T04:53:16.447Z,1028.04
2022-12-03T04:53:47.650Z,1028.04
2022-12-03T04:54:17.050Z,1028.14
2022-12-03T04:54:48.681Z,1028.04
2022-12-03T04:55:25.286Z,1028.04
2022-12-03T04:55:47.858Z,1028.04
2022-12-03T04:56:10.717Z,1028.04
2022-12-03T04:56:43.695Z,1028.04
2022-12-03T04:57:15.561Z,1028.14
2022-12-03T04:57:47.953Z,1028.14
2022-12-03T04:58:21.240Z,1028.14
2022-12-03T04:58:43.990Z,1028.14
2022-12-03T04:59:11.396Z,1028.14
2022-12-03T04:59:39.668Z,1028.14
2022-12-03T05:00:11.727Z,1027.84
2022-12-03T05:00:43.764Z,1027.84
2022-12-03T05:01:17.807Z,1028.04
2022-12-03T05:01:48.169Z,1028.04
2022-12-03T05:02:20.745Z,1027.84
2022-12-03T05:02:43.574Z,1028.04
2022-12-03T05:03:05.798Z,1028.04
2022-12-03T05:03:40.706Z,1028.04
2022-12-03T05:04:11.648Z,1027.94
2022-12-03T05:04:45.366Z,1027.94
2022-12-03T05:05:15.595Z,1027.94
2022-12-03T05:05:48.437Z,1027.94
2022-12-03T05:06:19.590Z,1027.73
2022-12-03T05:06:50.941Z,1028.04
2022-12-03T05:07:25.306Z,1028.04
2022-12-03T05:07:46.555Z,1027.84
2022-12-03T05:08:08.911Z,1027.84
2022-12-03T05:08:43.601Z,1027.84
2022-12-03T05:09:17.056Z,1027.94
2022-12-03T05:09:48.450Z,1027.94
2022-12-03T05:10:19.921Z,1027.84
2022-12-03T05:10:42.612Z,1027.84
2022-12-03T05:11:05.750Z,1027.84
2022-12-03T05:11:39.671Z,1027.84
2022-12-03T05:12:11.954Z,1027.84
2022-12-03T05:12:43.649Z,1027.84
2022-12-03T05:13:16.118Z,1027.94
2022-12-03T05:13:57.466Z,1028.04
2022-12-03T05:14:18.535Z,1028.04
2022-12-03T05:14:48.610Z,1028.04
2022-12-03T05:15:28.399Z,1028.04
2022-12-03T05:15:58.210Z,1028.14
2022-12-03T05:16:28.080Z,1028.14
2022-12-03T05:16:50.826Z,1028.04
2022-12-03T05:17:13.502Z,1028.04
2022-12-03T05:17:48.521Z,1028.04
2022-12-03T05:18:20.144Z,1028.04
2022-12-03T05:18:49.062Z,1028.14
2022-12-03T05:19:25.197Z,1028.14
2022-12-03T05:19:47.614Z,1028.24
2022-12-03T05:20:09.941Z,1028.24
2022-12-03T05:20:49.801Z,1028.24
2022-12-03T05:21:15.765Z,1027.94
2022-12-03T05:21:48.446Z,1027.94
2022-12-03T05:22:19.957Z,1028.14
2022-12-03T05:22:42.760Z,1027.94
2022-12-03T05:23:05.139Z,1027.94
2022-12-03T05:23:39.878Z,1027.94
2022-12-03T05:24:12.182Z,1028.14
2022-12-03T05:24:43.697Z,1028.14
2022-12-03T05:25:16.391Z,1028.04
2022-12-03T05:25:47.788Z,1028.04
2022-12-03T05:26:17.518Z,1028.04
2022-12-03T05:26:48.882Z,1028.04
2022-12-03T05:27:24.809Z,1028.04
2022-12-03T05:27:47.058Z,1028.14
2022-12-03T05:28:09.400Z,1028.14
2022-12-03T05:28:43.694Z,1028.14
2022-12-03T05:29:15.586Z,1028.14
2022-12-03T05:29:49.239Z,1028.14
2022-12-03T05:30:17.151Z,1027.84
2022-12-03T05:30:49.813Z,1028.04
2022-12-03T05:31:24.486Z,1028.04
2022-12-03T05:31:47.050Z,1028.04
2022-12-03T05:32:09.825Z,1028.04
2022-12-03T05:32:43.747Z,1028.04
2022-12-03T05:33:15.638Z,1027.94
2022-12-03T05:33:48.375Z,1027.94
2022-12-03T05:34:20.294Z,1028.04
2022-12-03T05:34:43.147Z,1028.14
2022-12-03T05:35:06.077Z,1028.14
2022-12-03T05:35:41.315Z,1028.14
2022-12-03T05:36:12.753Z,1027.94
2022-12-03T05:36:44.400Z,1027.94
2022-12-03T05:37:15.647Z,1027.94
2022-12-03T05:37:47.616Z,1027.94
2022-12-03T05:38:17.019Z,1028.04
2022-12-03T05:38:50.409Z,1027.94
2022-12-03T05:39:24.118Z,1027.94
2022-12-03T05:39:46.637Z,1028.14
2022-12-03T05:40:09.485Z,1028.14
2022-12-03T05:40:43.574Z,1028.14
2022-12-03T05:41:15.952Z,1027.94
2022-12-03T05:41:47.578Z,1027.94
2022-12-03T05:42:17.615Z,1027.94
2022-12-03T05:42:48.848Z,1027.94
2022-12-03T05:43:23.839Z,1027.94
2022-12-03T05:43:46.389Z,1028.24
2022-12-03T05:44:08.974Z,1028.24
2022-12-03T05:44:44.019Z,1028.24
2022-12-03T05:45:16.043Z,1028.04
2022-12-03T05:45:48.175Z,1028.04
2022-12-03T05:46:19.669Z,1028.04
2022-12-03T05:46:48.894Z,1028.04
2022-12-03T05:47:23.651Z,1028.04
2022-12-03T05:47:46.301Z,1028.14
2022-12-03T05:48:08.723Z,1028.14
2022-12-03T05:48:44.152Z,1028.14
2022-12-03T05:49:16.450Z,1028.14
2022-12-03T05:49:47.620Z,1028.14
2022-12-03T05:50:18.936Z,1027.94
2022-12-03T05:50:48.828Z,1028.04
2022-12-03T05:51:25.011Z,1028.04
2022-12-03T05:51:47.492Z,1028.04
2022-12-03T05:52:09.872Z,1028.04
2022-12-03T05:52:43.706Z,1028.04
2022-12-03T05:53:15.675Z,1027.94
2022-12-03T05:53:48.071Z,1027.94
2022-12-03T05:54:19.587Z,1028.04
2022-12-03T05:54:48.725Z,1027.94
2022-12-03T05:55:24.742Z,1027.94
2022-12-03T05:55:46.922Z,1027.94
2022-12-03T05:56:09.476Z,1027.94
2022-12-03T05:56:43.641Z,1027.94
2022-12-03T05:57:15.658Z,1027.94
2022-12-03T05:57:47.961Z,1027.94
2022-12-03T05:58:20.398Z,1028.04
2022-12-03T05:58:43.151Z,1027.84
2022-12-03T05:59:05.457Z,1027.84
2022-12-03T05:59:39.856Z,1027.84
2022-12-03T06:00:11.860Z,1028.14
2022-12-03T06:00:44.711Z,1028.14
2022-12-03T06:01:15.589Z,1028.04
2022-12-03T06:01:48.228Z,1028.04
2022-12-03T06:02:19.925Z,1028.14
2022-12-03T06:02:42.652Z,1028.14